Station Historical Data
Daily Summary for November 30, 2017 Units:  English    Metric   Both
« Previous Day
Next Day »
Daily Weekly Monthly Yearly Custom
  High: Low: Average:
Temperature: 53.3 °F 24.8 °F 39.7 °F
Dew Point: 43.1 °F 20.9 °F 32.3 °F
Humidity: 88% 53% 76%
Wind Speed: 17.0mph 0.0mph 4.2mph
Wind Gust: 21.0mph - -
Wind- - SW
Pressure: 30.27 in 29.84 in -
Precipitation: 0.00 in    
Historical Graphs
 
 
Tabular Data for November 30, 2017
Time Temperature Dew Point Pressure Wind Wind Speed Wind Gust Humidity Rainfall Rate (Hourly)
00:09 28.9 °F 23.8 °F 30.26 in ESE 4.0 mph 4.0 mph 81% 0.00 in
00:14 29.0 °F 23.6 °F 30.25 in Calm   5.0 mph 80% 0.00 in
00:19 29.0 °F 23.6 °F 30.26 in ESE 1.0 mph 5.0 mph 80% 0.00 in
00:24 29.0 °F 23.6 °F 30.26 in ESE 1.0 mph 4.0 mph 80% 0.00 in
00:34 28.5 °F 23.1 °F 30.27 in Calm     80% 0.00 in
00:39 28.3 °F 22.9 °F 30.26 in Calm     80% 0.00 in
00:49 28.0 °F 22.9 °F 30.26 in South 1.0 mph 4.0 mph 81% 0.00 in
00:59 27.3 °F 22.2 °F 30.27 in Calm   2.0 mph 81% 0.00 in
01:04 27.2 °F 22.4 °F 30.26 in Calm     82% 0.00 in
01:09 26.9 °F 22.1 °F 30.26 in Calm     82% 0.00 in
01:14 26.9 °F 22.1 °F 30.26 in Calm     82% 0.00 in
01:19 26.9 °F 22.4 °F 30.26 in Calm     83% 0.00 in
01:24 27.0 °F 22.5 °F 30.26 in Calm   2.0 mph 83% 0.00 in
01:29 27.6 °F 23.1 °F 30.25 in Calm   3.0 mph 83% 0.00 in
01:34 28.2 °F 23.7 °F 30.25 in South 1.0 mph 3.0 mph 83% 0.00 in
01:44 28.8 °F 24.0 °F 30.25 in South 1.0 mph 6.0 mph 82% 0.00 in
01:49 28.9 °F 23.8 °F 30.25 in South 1.0 mph 3.0 mph 81% 0.00 in
01:54 28.8 °F 23.7 °F 30.24 in South 1.0 mph 3.0 mph 81% 0.00 in
01:59 28.6 °F 23.5 °F 30.23 in Calm   2.0 mph 81% 0.00 in
02:09 28.6 °F 23.5 °F 30.23 in Calm   3.0 mph 81% 0.00 in
02:19 28.7 °F 23.6 °F 30.22 in Calm   4.0 mph 81% 0.00 in
02:29 28.4 °F 23.3 °F 30.21 in Calm     81% 0.00 in
02:34 28.3 °F 23.2 °F 30.21 in Calm     81% 0.00 in
02:39 28.2 °F 23.1 °F 30.21 in Calm     81% 0.00 in
02:49 28.2 °F 23.4 °F 30.22 in Calm   2.0 mph 82% 0.00 in
02:54 28.2 °F 23.4 °F 30.21 in Calm   4.0 mph 82% 0.00 in
02:59 28.3 °F 23.2 °F 30.21 in Calm   4.0 mph 81% 0.00 in
03:14 28.8 °F 23.7 °F 30.20 in Calm   2.0 mph 81% 0.00 in
03:19 28.7 °F 23.6 °F 30.20 in Calm   1.0 mph 81% 0.00 in
03:24 28.5 °F 23.4 °F 30.20 in Calm     81% 0.00 in
03:29 28.2 °F 23.1 °F 30.20 in Calm     81% 0.00 in
03:34 28.0 °F 23.2 °F 30.19 in Calm     82% 0.00 in
03:39 28.0 °F 23.2 °F 30.19 in Calm     82% 0.00 in
03:44 27.8 °F 23.0 °F 30.18 in Calm     82% 0.00 in
03:54 27.6 °F 22.8 °F 30.18 in Calm     82% 0.00 in
04:04 27.4 °F 22.9 °F 30.18 in Calm     83% 0.00 in
04:09 26.9 °F 22.4 °F 30.17 in Calm     83% 0.00 in
04:19 26.5 °F 22.0 °F 30.17 in Calm     83% 0.00 in
04:24 26.0 °F 21.5 °F 30.17 in Calm     83% 0.00 in
04:29 25.6 °F 21.2 °F 30.17 in Calm     83% 0.00 in
04:39 25.3 °F 21.1 °F 30.16 in Calm     84% 0.00 in
04:44 25.3 °F 21.4 °F 30.16 in Calm     85% 0.00 in
04:49 25.1 °F 21.2 °F 30.16 in Calm     85% 0.00 in
04:54 24.9 °F 21.0 °F 30.16 in Calm     85% 0.00 in
04:59 24.8 °F 20.9 °F 30.16 in Calm     85% 0.00 in
05:04 24.8 °F 20.9 °F 30.16 in Calm     85% 0.00 in
05:09 25.4 °F 22.1 °F 30.15 in Calm   2.0 mph 87% 0.00 in
05:14 25.8 °F 22.2 °F 30.15 in Calm   2.0 mph 86% 0.00 in
05:19 26.0 °F 22.4 °F 30.14 in Calm   1.0 mph 86% 0.00 in
05:44 25.9 °F 22.0 °F 30.14 in Calm     85% 0.00 in
05:49 25.8 °F 22.2 °F 30.13 in Calm     86% 0.00 in
05:59 26.8 °F 23.2 °F 30.13 in Calm     86% 0.00 in
06:04 27.1 °F 23.2 °F 30.13 in Calm     85% 0.00 in
06:14 26.4 °F 22.5 °F 30.12 in Calm     85% 0.00 in
06:24 26.6 °F 23.0 °F 30.11 in Calm     86% 0.00 in
06:29 26.7 °F 22.8 °F 30.12 in Calm     85% 0.00 in
06:59 27.1 °F 23.5 °F 30.10 in Calm     86% 0.00 in
07:14 27.9 °F 23.7 °F 30.10 in Calm   3.0 mph 84% 0.00 in
07:24 28.7 °F 24.5 °F 30.09 in Calm     84% 0.00 in
07:29 27.8 °F 23.0 °F 30.10 in Calm     82% 0.00 in
07:34 27.1 °F 22.6 °F 30.09 in Calm     83% 0.00 in
07:39 26.8 °F 22.3 °F 30.09 in Calm     83% 0.00 in
07:54 27.3 °F 23.4 °F 30.07 in Calm     85% 0.00 in
07:59 28.2 °F 24.3 °F 30.07 in Calm     85% 0.00 in
08:04 28.8 °F 24.9 °F 30.07 in Calm     85% 0.00 in
08:09 29.7 °F 25.5 °F 30.07 in Calm     84% 0.00 in
08:19 31.9 °F 27.0 °F 30.06 in South 1.0 mph 5.0 mph 82% 0.00 in
08:24 32.4 °F 26.9 °F 30.06 in SSW 1.0 mph 2.0 mph 80% 0.00 in
08:29 33.0 °F 27.2 °F 30.06 in SSW 1.0 mph 3.0 mph 79% 0.00 in
08:34 33.9 °F 27.4 °F 30.05 in SSW 1.0 mph 3.0 mph 77% 0.00 in
08:39 35.3 °F 28.2 °F 30.05 in Calm   4.0 mph 75% 0.00 in
08:44 36.4 °F 28.2 °F 30.05 in SSW 1.0 mph 4.0 mph 72% 0.00 in
08:49 37.6 °F 28.7 °F 30.04 in South 3.0 mph 4.0 mph 70% 0.00 in
09:04 39.2 °F 29.2 °F 30.04 in South 1.0 mph 3.0 mph 67% 0.00 in
09:09 40.0 °F 29.9 °F 30.03 in SSW 1.0 mph 4.0 mph 67% 0.00 in
09:14 41.4 °F 30.5 °F 30.03 in South 3.0 mph 7.0 mph 65% 0.00 in
09:29 44.4 °F 31.8 °F 30.02 in South 6.0 mph 9.0 mph 61% 0.00 in
09:34 45.1 °F 32.4 °F 30.01 in South 5.0 mph 9.0 mph 61% 0.00 in
09:39 45.9 °F 32.8 °F 30.01 in SSW 5.0 mph 10.0 mph 60% 0.00 in
09:44 46.1 °F 33.0 °F 30.01 in SSW 7.0 mph 12.0 mph 60% 0.00 in
09:54 46.3 °F 33.2 °F 30.00 in South 4.0 mph 12.0 mph 60% 0.00 in
09:59 46.5 °F 33.4 °F 30.00 in South 6.0 mph 9.0 mph 60% 0.00 in
10:04 46.7 °F 33.5 °F 29.99 in South 6.0 mph 9.0 mph 60% 0.00 in
10:09 46.9 °F 33.7 °F 30.00 in South 5.0 mph 9.0 mph 60% 0.00 in
10:24 47.3 °F 33.7 °F 29.98 in South 6.0 mph 14.0 mph 59% 0.00 in
10:29 47.6 °F 34.0 °F 29.98 in South 9.0 mph 12.0 mph 59% 0.00 in
10:34 47.7 °F 34.1 °F 29.97 in South 8.0 mph 10.0 mph 59% 0.00 in
10:44 48.1 °F 34.0 °F 29.97 in South 6.0 mph 15.0 mph 58% 0.00 in
10:54 48.3 °F 34.2 °F 29.96 in SSW 3.0 mph 12.0 mph 58% 0.00 in
11:04 48.9 °F 34.8 °F 29.95 in South 3.0 mph 10.0 mph 58% 0.00 in
11:09 49.2 °F 35.0 °F 29.95 in SSW 9.0 mph 11.0 mph 58% 0.00 in
11:14 49.3 °F 35.1 °F 29.94 in South 6.0 mph 11.0 mph 58% 0.00 in
11:19 49.1 °F 34.5 °F 29.94 in South 5.0 mph 13.0 mph 57% 0.00 in
11:24 49.2 °F 35.0 °F 29.93 in SSW 9.0 mph 12.0 mph 58% 0.00 in
11:34 49.6 °F 35.4 °F 29.93 in SSE 9.0 mph 11.0 mph 58% 0.00 in
11:44 50.4 °F 35.7 °F 29.92 in South 4.0 mph 13.0 mph 57% 0.00 in
11:49 50.8 °F 36.1 °F 29.92 in South 6.0 mph 13.0 mph 57% 0.00 in
11:54 51.2 °F 36.0 °F 29.91 in SSW 5.0 mph 14.0 mph 56% 0.00 in
12:04 51.8 °F 36.1 °F 29.90 in South 8.0 mph 18.0 mph 55% 0.00 in
12:09 51.9 °F 35.8 °F 29.90 in South 9.0 mph 18.0 mph 54% 0.00 in
12:14 51.9 °F 36.2 °F 29.90 in SSW 11.0 mph 14.0 mph 55% 0.00 in
12:19 51.9 °F 35.8 °F 29.89 in SSW 8.0 mph 17.0 mph 54% 0.00 in
12:24 51.9 °F 35.8 °F 29.89 in SSE 4.0 mph 16.0 mph 54% 0.00 in
12:34 51.9 °F 35.8 °F 29.89 in SSW 10.0 mph 14.0 mph 54% 0.00 in
12:44 52.3 °F 36.1 °F 29.88 in South 8.0 mph 15.0 mph 54% 0.00 in
12:49 52.3 °F 36.1 °F 29.88 in South 6.0 mph 20.0 mph 54% 0.00 in
13:14 52.8 °F 36.1 °F 29.86 in South 3.0 mph 12.0 mph 53% 0.00 in
13:19 53.0 °F 36.3 °F 29.86 in South 12.0 mph 16.0 mph 53% 0.00 in
13:29 53.3 °F 36.6 °F 29.85 in SSW 7.0 mph 14.0 mph 53% 0.00 in
13:44 53.1 °F 36.4 °F 29.85 in SSW 7.0 mph 17.0 mph 53% 0.00 in
13:49 53.0 °F 36.3 °F 29.85 in South 5.0 mph 12.0 mph 53% 0.00 in
13:54 53.0 °F 36.3 °F 29.85 in SSW 4.0 mph 13.0 mph 53% 0.00 in
13:59 53.1 °F 36.4 °F 29.85 in SSW 6.0 mph 13.0 mph 53% 0.00 in
14:14 52.7 °F 37.4 °F 29.84 in SSW 7.0 mph 16.0 mph 56% 0.00 in
14:19 52.5 °F 37.7 °F 29.84 in SSW 7.0 mph 16.0 mph 57% 0.00 in
14:24 52.3 °F 37.5 °F 29.84 in SW 7.0 mph 15.0 mph 57% 0.00 in
14:29 52.2 °F 38.3 °F 29.84 in SW 6.0 mph 13.0 mph 59% 0.00 in
14:34 52.1 °F 38.2 °F 29.85 in SW 6.0 mph 14.0 mph 59% 0.00 in
14:49 51.2 °F 41.4 °F 29.84 in West 9.0 mph 17.0 mph 69% 0.00 in
14:59 49.8 °F 41.5 °F 29.85 in WSW 6.0 mph 18.0 mph 73% 0.00 in
15:09 48.8 °F 41.6 °F 29.86 in WSW 9.0 mph 19.0 mph 76% 0.01 in
15:14 48.3 °F 41.4 °F 29.86 in WSW 8.0 mph 16.0 mph 77% 0.01 in
15:24 47.6 °F 41.7 °F 29.86 in WSW 6.0 mph 12.0 mph 80% 0.02 in
15:29 47.4 °F 41.9 °F 29.86 in West 4.0 mph 15.0 mph 81% 0.02 in
15:34 47.3 °F 41.8 °F 29.86 in WNW 4.0 mph 10.0 mph 81% 0.03 in
15:39 47.1 °F 41.9 °F 29.86 in WSW 6.0 mph 11.0 mph 82% 0.03 in
15:44 47.0 °F 42.1 °F 29.87 in WSW 7.0 mph 13.0 mph 83% 0.04 in
15:49 46.8 °F 41.9 °F 29.87 in WSW 7.0 mph 15.0 mph 83% 0.05 in
16:04 46.4 °F 42.1 °F 29.88 in WNW 7.0 mph 17.0 mph 85% 0.08 in
16:14 46.2 °F 41.9 °F 29.87 in WSW 8.0 mph 18.0 mph 85% 0.09 in
16:19 46.1 °F 42.1 °F 29.88 in WSW 9.0 mph 18.0 mph 86% 0.08 in
16:24 46.0 °F 42.0 °F 29.87 in SW 6.0 mph 18.0 mph 86% 0.08 in
16:29 46.0 °F 42.3 °F 29.87 in SW 5.0 mph 16.0 mph 87% 0.08 in
16:34 46.0 °F 42.3 °F 29.87 in WSW 13.0 mph 15.0 mph 87% 0.07 in
16:44 46.0 °F 42.3 °F 29.87 in West 10.0 mph 18.0 mph 87% 0.07 in
16:49 46.0 °F 42.3 °F 29.88 in WSW 8.0 mph 18.0 mph 87% 0.06 in
16:54 46.1 °F 42.7 °F 29.88 in WSW 8.0 mph 17.0 mph 88% 0.05 in
17:09 46.2 °F 42.8 °F 29.88 in WSW 9.0 mph 20.0 mph 88% 0.02 in
17:14 46.3 °F 42.9 °F 29.89 in WSW 8.0 mph 17.0 mph 88% 0.01 in
17:19 46.4 °F 43.0 °F 29.89 in SW 11.0 mph 17.0 mph 88% 0.01 in
17:24 46.4 °F 43.0 °F 29.89 in West 11.0 mph 20.0 mph 88% 0.01 in
17:34 46.5 °F 43.1 °F 29.90 in West 5.0 mph 21.0 mph 88% 0.01 in
17:39 46.5 °F 43.1 °F 29.91 in NW 15.0 mph 18.0 mph 88% 0.00 in
17:54 46.2 °F 42.5 °F 29.92 in West 9.0 mph 20.0 mph 87% 0.00 in
17:59 46.0 °F 42.3 °F 29.92 in West 10.0 mph 19.0 mph 87% 0.00 in
18:04 45.8 °F 42.2 °F 29.93 in West 9.0 mph 19.0 mph 87% 0.00 in
18:09 45.7 °F 42.1 °F 29.93 in West 8.0 mph 17.0 mph 87% 0.00 in
18:14 45.5 °F 41.9 °F 29.93 in West 8.0 mph 18.0 mph 87% 0.00 in
18:19 45.4 °F 41.8 °F 29.94 in WSW 12.0 mph 14.0 mph 87% 0.00 in
18:24 45.1 °F 41.2 °F 29.95 in NW 17.0 mph 21.0 mph 86% 0.00 in
18:34 44.6 °F 40.7 °F 29.95 in West 8.0 mph 19.0 mph 86% 0.00 in
18:39 44.4 °F 40.5 °F 29.95 in West 8.0 mph 12.0 mph 86% 0.00 in
18:49 44.1 °F 39.9 °F 29.96 in West 7.0 mph 10.0 mph 85% 0.00 in
18:59 44.0 °F 39.5 °F 29.96 in WNW 7.0 mph 15.0 mph 84% 0.00 in
19:04 44.0 °F 39.2 °F 29.97 in West 7.0 mph 15.0 mph 83% 0.00 in
19:09 43.9 °F 38.8 °F 29.98 in West 7.0 mph 17.0 mph 82% 0.00 in
19:14 43.9 °F 38.8 °F 29.97 in West 7.0 mph 17.0 mph 82% 0.00 in
19:24 43.9 °F 38.1 °F 29.99 in West 3.0 mph 8.0 mph 80% 0.00 in
19:34 43.9 °F 38.1 °F 29.99 in West 3.0 mph 9.0 mph 80% 0.00 in
19:39 43.9 °F 38.1 °F 29.99 in West 5.0 mph 10.0 mph 80% 0.00 in
19:44 43.8 °F 38.0 °F 29.99 in West 4.0 mph 10.0 mph 80% 0.00 in
19:59 43.8 °F 38.0 °F 30.00 in WSW 8.0 mph 8.0 mph 80% 0.00 in
20:09 43.7 °F 37.9 °F 30.01 in WSW 6.0 mph 12.0 mph 80% 0.00 in
20:19 43.7 °F 37.6 °F 30.01 in WSW 6.0 mph 10.0 mph 79% 0.00 in
20:29 43.7 °F 37.3 °F 30.01 in WSW 7.0 mph 13.0 mph 78% 0.00 in
20:39 43.8 °F 37.4 °F 30.02 in West 2.0 mph 13.0 mph 78% 0.00 in
20:44 43.8 °F 37.4 °F 30.02 in WSW 6.0 mph 13.0 mph 78% 0.00 in
20:49 43.8 °F 37.4 °F 30.02 in West 5.0 mph 12.0 mph 78% 0.00 in
20:54 43.8 °F 37.4 °F 30.02 in West 6.0 mph 12.0 mph 78% 0.00 in
21:04 44.0 °F 37.6 °F 30.02 in WNW 6.0 mph 13.0 mph 78% 0.00 in
21:09 44.0 °F 37.6 °F 30.02 in WSW 6.0 mph 21.0 mph 78% 0.00 in
21:14 44.0 °F 37.6 °F 30.02 in WSW 6.0 mph 13.0 mph 78% 0.00 in
21:24 43.8 °F 37.1 °F 30.03 in West 7.0 mph 13.0 mph 77% 0.00 in
21:34 43.7 °F 37.0 °F 30.03 in West 6.0 mph 12.0 mph 77% 0.00 in
21:44 43.6 °F 36.9 °F 30.03 in West 5.0 mph 13.0 mph 77% 0.00 in
21:59 43.4 °F 36.3 °F 30.03 in WSW 8.0 mph 12.0 mph 76% 0.00 in
22:04 43.4 °F 36.0 °F 30.03 in WSW 5.0 mph 10.0 mph 75% 0.00 in
22:19 43.3 °F 35.6 °F 30.03 in WSW 4.0 mph 12.0 mph 74% 0.00 in
22:24 43.3 °F 35.6 °F 30.03 in West 5.0 mph 10.0 mph 74% 0.00 in
22:29 43.3 °F 35.6 °F 30.03 in West 5.0 mph 10.0 mph 74% 0.00 in
22:34 43.2 °F 35.5 °F 30.03 in West 4.0 mph 10.0 mph 74% 0.00 in
22:39 43.3 °F 35.2 °F 30.03 in WSW 5.0 mph 10.0 mph 73% 0.00 in
22:44 43.3 °F 35.2 °F 30.04 in WSW 5.0 mph 11.0 mph 73% 0.00 in
22:49 43.3 °F 35.2 °F 30.04 in West 4.0 mph 12.0 mph 73% 0.00 in
22:54 43.3 °F 35.2 °F 30.04 in West 5.0 mph 12.0 mph 73% 0.00 in
22:59 43.3 °F 35.6 °F 30.04 in West 5.0 mph 9.0 mph 74% 0.00 in
23:04 43.3 °F 35.6 °F 30.04 in WSW 11.0 mph 11.0 mph 74% 0.00 in
23:09 43.3 °F 35.6 °F 30.05 in West 7.0 mph 11.0 mph 74% 0.00 in
23:19 43.3 °F 35.2 °F 30.05 in WNW 4.0 mph 10.0 mph 73% 0.00 in
23:24 43.3 °F 35.2 °F 30.05 in West 5.0 mph 10.0 mph 73% 0.00 in
23:29 43.3 °F 35.2 °F 30.05 in West 5.0 mph 10.0 mph 73% 0.00 in
23:34 43.3 °F 35.2 °F 30.05 in West 5.0 mph 10.0 mph 73% 0.00 in
23:39 43.2 °F 35.1 °F 30.05 in West 5.0 mph 10.0 mph 73% 0.00 in
23:44 43.2 °F 34.8 °F 30.05 in West 6.0 mph 10.0 mph 72% 0.00 in
23:54 43.2 °F 35.1 °F 30.05 in West 1.0 mph 9.0 mph 73% 0.00 in
23:59 43.1 °F 35.0 °F 30.05 in WNW 2.0 mph 10.0 mph 73% 0.00 in
Buffalo, New York, USA
Compliments of Weather Underground - 2 mb